sensor_id;sensor_type;location;lat;lon;timestamp;P1;durP1;ratioP1;P2;durP2;ratioP2
24096;SDS011;12275;48.550;12.132;2023-06-01T00:02:02;9.05;;;6.03;;
24096;SDS011;12275;48.550;12.132;2023-06-01T00:04:28;9.60;;;6.78;;
24096;SDS011;12275;48.550;12.132;2023-06-01T00:06:53;9.73;;;6.53;;
24096;SDS011;12275;48.550;12.132;2023-06-01T00:09:19;10.60;;;6.65;;
24096;SDS011;12275;48.550;12.132;2023-06-01T00:11:45;9.48;;;7.10;;
24096;SDS011;12275;48.550;12.132;2023-06-01T00:14:11;13.60;;;7.00;;
24096;SDS011;12275;48.550;12.132;2023-06-01T00:16:36;12.25;;;6.75;;
24096;SDS011;12275;48.550;12.132;2023-06-01T00:19:02;16.67;;;6.53;;
24096;SDS011;12275;48.550;12.132;2023-06-01T00:21:28;9.57;;;7.10;;
24096;SDS011;12275;48.550;12.132;2023-06-01T00:23:57;13.38;;;7.97;;
24096;SDS011;12275;48.550;12.132;2023-06-01T00:26:22;11.93;;;6.55;;
24096;SDS011;12275;48.550;12.132;2023-06-01T00:28:48;16.30;;;7.20;;
24096;SDS011;12275;48.550;12.132;2023-06-01T00:31:14;10.23;;;6.53;;
24096;SDS011;12275;48.550;12.132;2023-06-01T00:33:40;10.85;;;6.93;;
24096;SDS011;12275;48.550;12.132;2023-06-01T00:36:05;13.48;;;6.43;;
24096;SDS011;12275;48.550;12.132;2023-06-01T00:38:31;10.27;;;6.63;;
24096;SDS011;12275;48.550;12.132;2023-06-01T00:40:57;15.90;;;6.80;;
24096;SDS011;12275;48.550;12.132;2023-06-01T00:43:22;9.30;;;6.05;;
24096;SDS011;12275;48.550;12.132;2023-06-01T00:45:48;10.23;;;6.80;;
24096;SDS011;12275;48.550;12.132;2023-06-01T00:48:14;11.95;;;6.95;;
24096;SDS011;12275;48.550;12.132;2023-06-01T00:50:41;9.60;;;6.68;;
24096;SDS011;12275;48.550;12.132;2023-06-01T00:53:09;13.00;;;6.80;;
24096;SDS011;12275;48.550;12.132;2023-06-01T00:55:42;10.27;;;6.55;;
24096;SDS011;12275;48.550;12.132;2023-06-01T00:58:08;12.60;;;6.72;;
24096;SDS011;12275;48.550;12.132;2023-06-01T01:00:34;11.40;;;7.00;;
24096;SDS011;12275;48.550;12.132;2023-06-01T01:03:00;10.82;;;6.88;;
24096;SDS011;12275;48.550;12.132;2023-06-01T01:05:32;11.35;;;6.55;;
24096;SDS011;12275;48.550;12.132;2023-06-01T01:10:50;8.30;;;6.40;;
24096;SDS011;12275;48.550;12.132;2023-06-01T01:13:27;16.50;;;7.13;;
24096;SDS011;12275;48.550;12.132;2023-06-01T01:21:42;11.23;;;7.28;;
24096;SDS011;12275;48.550;12.132;2023-06-01T01:24:30;22.83;;;18.67;;
24096;SDS011;12275;48.550;12.132;2023-06-01T01:27:16;53.13;;;47.53;;
24096;SDS011;12275;48.550;12.132;2023-06-01T01:29:49;11.25;;;7.72;;
24096;SDS011;12275;48.550;12.132;2023-06-01T01:32:19;12.65;;;9.45;;
24096;SDS011;12275;48.550;12.132;2023-06-01T01:34:46;15.05;;;6.10;;
24096;SDS011;12275;48.550;12.132;2023-06-01T01:37:13;326.52;;;292.63;;
24096;SDS011;12275;48.550;12.132;2023-06-01T01:39:39;11.77;;;6.30;;
24096;SDS011;12275;48.550;12.132;2023-06-01T01:42:05;744.85;;;684.42;;
24096;SDS011;12275;48.550;12.132;2023-06-01T01:44:31;10.63;;;8.07;;
24096;SDS011;12275;48.550;12.132;2023-06-01T01:49:45;41.85;;;34.55;;
24096;SDS011;12275;48.550;12.132;2023-06-01T01:54:44;18.83;;;13.20;;
24096;SDS011;12275;48.550;12.132;2023-06-01T01:57:15;9.40;;;6.63;;
24096;SDS011;12275;48.550;12.132;2023-06-01T01:59:43;11.43;;;6.38;;
24096;SDS011;12275;48.550;12.132;2023-06-01T02:02:10;37.03;;;31.63;;
24096;SDS011;12275;48.550;12.132;2023-06-01T02:04:39;9.30;;;6.00;;
24096;SDS011;12275;48.550;12.132;2023-06-01T02:07:06;13.40;;;6.40;;
24096;SDS011;12275;48.550;12.132;2023-06-01T02:09:32;10.45;;;6.40;;
24096;SDS011;12275;48.550;12.132;2023-06-01T02:11:57;8.00;;;5.30;;
24096;SDS011;12275;48.550;12.132;2023-06-01T02:14:23;9.65;;;4.90;;
24096;SDS011;12275;48.550;12.132;2023-06-01T02:16:49;18.42;;;16.02;;
24096;SDS011;12275;48.550;12.132;2023-06-01T02:19:15;13.40;;;8.98;;
24096;SDS011;12275;48.550;12.132;2023-06-01T02:21:41;8.00;;;5.25;;
24096;SDS011;12275;48.550;12.132;2023-06-01T02:24:07;12.20;;;5.90;;
24096;SDS011;12275;48.550;12.132;2023-06-01T02:26:34;11.10;;;5.43;;
24096;SDS011;12275;48.550;12.132;2023-06-01T02:29:00;14.40;;;12.95;;
24096;SDS011;12275;48.550;12.132;2023-06-01T02:31:35;64.47;;;57.45;;
24096;SDS011;12275;48.550;12.132;2023-06-01T02:34:01;45.97;;;40.85;;
24096;SDS011;12275;48.550;12.132;2023-06-01T02:36:27;10.32;;;6.20;;
24096;SDS011;12275;48.550;12.132;2023-06-01T02:38:54;11.13;;;6.03;;
24096;SDS011;12275;48.550;12.132;2023-06-01T02:41:20;10.80;;;6.70;;
24096;SDS011;12275;48.550;12.132;2023-06-01T02:43:46;19.50;;;11.40;;
24096;SDS011;12275;48.550;12.132;2023-06-01T02:46:12;7.78;;;6.22;;
24096;SDS011;12275;48.550;12.132;2023-06-01T02:48:38;255.07;;;227.80;;
24096;SDS011;12275;48.550;12.132;2023-06-01T02:51:03;10.63;;;5.37;;
24096;SDS011;12275;48.550;12.132;2023-06-01T02:53:30;10.40;;;5.63;;
24096;SDS011;12275;48.550;12.132;2023-06-01T02:55:56;7.55;;;5.70;;
24096;SDS011;12275;48.550;12.132;2023-06-01T02:58:22;8.40;;;6.03;;
24096;SDS011;12275;48.550;12.132;2023-06-01T03:00:47;13.18;;;5.38;;
24096;SDS011;12275;48.550;12.132;2023-06-01T03:03:13;11.32;;;5.38;;
24096;SDS011;12275;48.550;12.132;2023-06-01T03:05:39;10.13;;;4.88;;
24096;SDS011;12275;48.550;12.132;2023-06-01T03:08:05;9.73;;;8.05;;
24096;SDS011;12275;48.550;12.132;2023-06-01T03:10:33;15.55;;;13.93;;
24096;SDS011;12275;48.550;12.132;2023-06-01T03:12:59;14.48;;;5.75;;
24096;SDS011;12275;48.550;12.132;2023-06-01T03:15:25;8.02;;;6.80;;
24096;SDS011;12275;48.550;12.132;2023-06-01T03:17:52;12.73;;;4.60;;
24096;SDS011;12275;48.550;12.132;2023-06-01T03:20:18;9.73;;;5.93;;
24096;SDS011;12275;48.550;12.132;2023-06-01T03:22:43;8.18;;;5.07;;
24096;SDS011;12275;48.550;12.132;2023-06-01T03:25:10;8.77;;;4.50;;
24096;SDS011;12275;48.550;12.132;2023-06-01T03:27:40;9.02;;;4.57;;
24096;SDS011;12275;48.550;12.132;2023-06-01T03:30:07;9.75;;;5.35;;
24096;SDS011;12275;48.550;12.132;2023-06-01T03:32:38;9.88;;;4.93;;
24096;SDS011;12275;48.550;12.132;2023-06-01T03:35:11;7.20;;;4.40;;
24096;SDS011;12275;48.550;12.132;2023-06-01T03:37:37;8.50;;;5.22;;
24096;SDS011;12275;48.550;12.132;2023-06-01T03:40:05;11.57;;;4.97;;
24096;SDS011;12275;48.550;12.132;2023-06-01T03:42:38;11.13;;;5.80;;
24096;SDS011;12275;48.550;12.132;2023-06-01T03:45:05;12.07;;;4.60;;
24096;SDS011;12275;48.550;12.132;2023-06-01T03:47:32;10.48;;;4.40;;
24096;SDS011;12275;48.550;12.132;2023-06-01T03:49:58;8.43;;;3.75;;
24096;SDS011;12275;48.550;12.132;2023-06-01T03:52:25;12.57;;;4.25;;
24096;SDS011;12275;48.550;12.132;2023-06-01T03:54:52;7.75;;;4.13;;
24096;SDS011;12275;48.550;12.132;2023-06-01T03:57:19;13.65;;;5.60;;
24096;SDS011;12275;48.550;12.132;2023-06-01T03:59:45;7.15;;;5.05;;
24096;SDS011;12275;48.550;12.132;2023-06-01T04:02:11;9.85;;;4.88;;
24096;SDS011;12275;48.550;12.132;2023-06-01T04:04:37;6.60;;;4.63;;
24096;SDS011;12275;48.550;12.132;2023-06-01T04:07:06;11.68;;;5.10;;
24096;SDS011;12275;48.550;12.132;2023-06-01T04:09:39;7.30;;;4.43;;
24096;SDS011;12275;48.550;12.132;2023-06-01T04:12:05;11.32;;;4.95;;
24096;SDS011;12275;48.550;12.132;2023-06-01T04:14:31;7.63;;;6.45;;
24096;SDS011;12275;48.550;12.132;2023-06-01T04:16:57;12.50;;;5.15;;
24096;SDS011;12275;48.550;12.132;2023-06-01T04:19:22;7.90;;;4.60;;
24096;SDS011;12275;48.550;12.132;2023-06-01T04:21:48;7.82;;;4.90;;
24096;SDS011;12275;48.550;12.132;2023-06-01T04:24:14;8.50;;;5.18;;
24096;SDS011;12275;48.550;12.132;2023-06-01T04:26:40;12.88;;;6.30;;
24096;SDS011;12275;48.550;12.132;2023-06-01T04:29:06;8.00;;;5.10;;
24096;SDS011;12275;48.550;12.132;2023-06-01T04:31:33;8.85;;;5.38;;
24096;SDS011;12275;48.550;12.132;2023-06-01T04:33:59;8.82;;;5.15;;
24096;SDS011;12275;48.550;12.132;2023-06-01T04:36:27;6.53;;;5.13;;
24096;SDS011;12275;48.550;12.132;2023-06-01T04:38:57;11.43;;;5.20;;
24096;SDS011;12275;48.550;12.132;2023-06-01T04:41:23;14.25;;;5.63;;
24096;SDS011;12275;48.550;12.132;2023-06-01T04:43:52;10.38;;;5.18;;
24096;SDS011;12275;48.550;12.132;2023-06-01T04:46:22;5.97;;;4.57;;
24096;SDS011;12275;48.550;12.132;2023-06-01T04:48:50;7.28;;;4.80;;
24096;SDS011;12275;48.550;12.132;2023-06-01T04:51:16;26.65;;;9.02;;
24096;SDS011;12275;48.550;12.132;2023-06-01T04:53:45;11.02;;;9.80;;
24096;SDS011;12275;48.550;12.132;2023-06-01T04:56:15;22.65;;;18.55;;
24096;SDS011;12275;48.550;12.132;2023-06-01T04:58:42;12.60;;;6.13;;
24096;SDS011;12275;48.550;12.132;2023-06-01T05:01:08;21.13;;;13.65;;
24096;SDS011;12275;48.550;12.132;2023-06-01T05:03:34;15.48;;;11.55;;
24096;SDS011;12275;48.550;12.132;2023-06-01T05:05:59;31.70;;;28.52;;
24096;SDS011;12275;48.550;12.132;2023-06-01T05:08:25;8.45;;;6.82;;
24096;SDS011;12275;48.550;12.132;2023-06-01T05:10:51;44.53;;;38.83;;
24096;SDS011;12275;48.550;12.132;2023-06-01T05:13:16;10.48;;;5.88;;
24096;SDS011;12275;48.550;12.132;2023-06-01T05:15:42;23.38;;;11.77;;
24096;SDS011;12275;48.550;12.132;2023-06-01T05:18:07;36.45;;;32.72;;
24096;SDS011;12275;48.550;12.132;2023-06-01T05:20:33;9.77;;;6.28;;
24096;SDS011;12275;48.550;12.132;2023-06-01T05:22:59;11.20;;;6.18;;
24096;SDS011;12275;48.550;12.132;2023-06-01T05:25:24;69.68;;;59.85;;
24096;SDS011;12275;48.550;12.132;2023-06-01T05:27:50;23.95;;;20.00;;
24096;SDS011;12275;48.550;12.132;2023-06-01T05:30:16;18.45;;;5.03;;
24096;SDS011;12275;48.550;12.132;2023-06-01T05:32:41;78.65;;;70.72;;
24096;SDS011;12275;48.550;12.132;2023-06-01T05:35:07;14.15;;;5.47;;
24096;SDS011;12275;48.550;12.132;2023-06-01T05:37:33;9.57;;;5.05;;
24096;SDS011;12275;48.550;12.132;2023-06-01T05:39:58;6.82;;;4.55;;
24096;SDS011;12275;48.550;12.132;2023-06-01T05:42:24;8.30;;;4.53;;
24096;SDS011;12275;48.550;12.132;2023-06-01T05:44:50;8.73;;;4.80;;
24096;SDS011;12275;48.550;12.132;2023-06-01T05:47:15;12.15;;;6.15;;
24096;SDS011;12275;48.550;12.132;2023-06-01T05:49:41;35.25;;;31.48;;
24096;SDS011;12275;48.550;12.132;2023-06-01T05:52:06;21.95;;;8.23;;
24096;SDS011;12275;48.550;12.132;2023-06-01T05:54:32;17.58;;;8.18;;
24096;SDS011;12275;48.550;12.132;2023-06-01T05:56:58;6.45;;;4.97;;
24096;SDS011;12275;48.550;12.132;2023-06-01T05:59:23;27.95;;;21.23;;
24096;SDS011;12275;48.550;12.132;2023-06-01T06:01:49;41.67;;;37.22;;
24096;SDS011;12275;48.550;12.132;2023-06-01T06:04:15;109.78;;;98.28;;
24096;SDS011;12275;48.550;12.132;2023-06-01T06:06:41;62.88;;;53.75;;
24096;SDS011;12275;48.550;12.132;2023-06-01T06:09:06;60.00;;;51.23;;
24096;SDS011;12275;48.550;12.132;2023-06-01T06:11:32;46.70;;;41.10;;
24096;SDS011;12275;48.550;12.132;2023-06-01T06:13:58;62.90;;;51.33;;
24096;SDS011;12275;48.550;12.132;2023-06-01T06:16:23;86.47;;;67.13;;
24096;SDS011;12275;48.550;12.132;2023-06-01T06:18:49;79.60;;;60.40;;
24096;SDS011;12275;48.550;12.132;2023-06-01T06:21:15;165.88;;;138.77;;
24096;SDS011;12275;48.550;12.132;2023-06-01T06:23:40;139.75;;;102.53;;
24096;SDS011;12275;48.550;12.132;2023-06-01T06:26:07;145.32;;;109.57;;
24096;SDS011;12275;48.550;12.132;2023-06-01T06:28:33;22.45;;;15.52;;
24096;SDS011;12275;48.550;12.132;2023-06-01T06:30:59;161.70;;;138.13;;
24096;SDS011;12275;48.550;12.132;2023-06-01T06:33:24;116.63;;;86.97;;
24096;SDS011;12275;48.550;12.132;2023-06-01T06:35:50;105.38;;;79.75;;
24096;SDS011;12275;48.550;12.132;2023-06-01T06:38:16;159.05;;;113.75;;
24096;SDS011;12275;48.550;12.132;2023-06-01T06:40:41;511.67;;;462.42;;
24096;SDS011;12275;48.550;12.132;2023-06-01T06:43:07;326.75;;;243.25;;
24096;SDS011;12275;48.550;12.132;2023-06-01T06:45:33;378.15;;;283.88;;
24096;SDS011;12275;48.550;12.132;2023-06-01T06:47:59;263.25;;;184.65;;
24096;SDS011;12275;48.550;12.132;2023-06-01T06:50:25;281.90;;;199.10;;
24096;SDS011;12275;48.550;12.132;2023-06-01T06:52:51;289.65;;;204.48;;
24096;SDS011;12275;48.550;12.132;2023-06-01T06:55:16;206.70;;;137.70;;
24096;SDS011;12275;48.550;12.132;2023-06-01T06:57:42;149.45;;;100.85;;
24096;SDS011;12275;48.550;12.132;2023-06-01T07:00:08;58.72;;;43.10;;
24096;SDS011;12275;48.550;12.132;2023-06-01T07:02:39;342.15;;;289.83;;
24096;SDS011;12275;48.550;12.132;2023-06-01T07:05:05;126.82;;;86.45;;
24096;SDS011;12275;48.550;12.132;2023-06-01T07:07:33;658.22;;;603.05;;
24096;SDS011;12275;48.550;12.132;2023-06-01T07:09:59;299.17;;;222.57;;
24096;SDS011;12275;48.550;12.132;2023-06-01T07:12:24;272.67;;;190.60;;
24096;SDS011;12275;48.550;12.132;2023-06-01T07:14:50;243.03;;;167.63;;
24096;SDS011;12275;48.550;12.132;2023-06-01T07:17:16;168.60;;;111.82;;
24096;SDS011;12275;48.550;12.132;2023-06-01T07:19:41;236.35;;;161.90;;
24096;SDS011;12275;48.550;12.132;2023-06-01T07:22:07;267.47;;;179.80;;
24096;SDS011;12275;48.550;12.132;2023-06-01T07:24:32;276.07;;;192.07;;
24096;SDS011;12275;48.550;12.132;2023-06-01T07:26:58;275.75;;;192.02;;
24096;SDS011;12275;48.550;12.132;2023-06-01T07:29:24;226.77;;;153.55;;
24096;SDS011;12275;48.550;12.132;2023-06-01T07:31:51;113.72;;;77.07;;
24096;SDS011;12275;48.550;12.132;2023-06-01T07:34:17;90.57;;;63.60;;
24096;SDS011;12275;48.550;12.132;2023-06-01T07:36:45;460.95;;;411.30;;
24096;SDS011;12275;48.550;12.132;2023-06-01T07:39:12;318.75;;;233.20;;
24096;SDS011;12275;48.550;12.132;2023-06-01T07:41:38;342.15;;;245.07;;
24096;SDS011;12275;48.550;12.132;2023-06-01T07:44:04;220.20;;;155.40;;
24096;SDS011;12275;48.550;12.132;2023-06-01T07:46:31;216.80;;;150.60;;
24096;SDS011;12275;48.550;12.132;2023-06-01T07:48:56;143.15;;;103.70;;
24096;SDS011;12275;48.550;12.132;2023-06-01T07:51:22;32.55;;;28.45;;
24096;SDS011;12275;48.550;12.132;2023-06-01T07:53:48;8.27;;;5.72;;
24096;SDS011;12275;48.550;12.132;2023-06-01T07:56:14;664.50;;;605.53;;
24096;SDS011;12275;48.550;12.132;2023-06-01T07:58:39;378.70;;;275.23;;
24096;SDS011;12275;48.550;12.132;2023-06-01T08:01:05;226.35;;;163.23;;
24096;SDS011;12275;48.550;12.132;2023-06-01T08:03:31;275.95;;;196.73;;
24096;SDS011;12275;48.550;12.132;2023-06-01T08:05:58;281.77;;;198.10;;
24096;SDS011;12275;48.550;12.132;2023-06-01T08:08:29;154.18;;;114.10;;
24096;SDS011;12275;48.550;12.132;2023-06-01T08:10:55;135.93;;;100.68;;
24096;SDS011;12275;48.550;12.132;2023-06-01T08:13:21;146.90;;;106.82;;
24096;SDS011;12275;48.550;12.132;2023-06-01T08:15:50;70.10;;;56.40;;
24096;SDS011;12275;48.550;12.132;2023-06-01T08:18:17;69.53;;;56.03;;
24096;SDS011;12275;48.550;12.132;2023-06-01T08:20:44;82.60;;;65.15;;
24096;SDS011;12275;48.550;12.132;2023-06-01T08:23:10;49.93;;;44.53;;
24096;SDS011;12275;48.550;12.132;2023-06-01T08:25:36;52.10;;;44.13;;
24096;SDS011;12275;48.550;12.132;2023-06-01T08:28:02;74.37;;;60.07;;
24096;SDS011;12275;48.550;12.132;2023-06-01T08:30:28;82.67;;;64.83;;
24096;SDS011;12275;48.550;12.132;2023-06-01T08:32:53;49.78;;;43.15;;
24096;SDS011;12275;48.550;12.132;2023-06-01T08:35:20;45.63;;;40.67;;
24096;SDS011;12275;48.550;12.132;2023-06-01T08:37:49;39.00;;;34.72;;
24096;SDS011;12275;48.550;12.132;2023-06-01T08:40:15;25.83;;;22.05;;
24096;SDS011;12275;48.550;12.132;2023-06-01T08:43:03;12.75;;;10.95;;
24096;SDS011;12275;48.550;12.132;2023-06-01T08:45:31;25.80;;;17.37;;
24096;SDS011;12275;48.550;12.132;2023-06-01T08:47:57;16.98;;;14.85;;
24096;SDS011;12275;48.550;12.132;2023-06-01T08:50:23;17.47;;;13.97;;
24096;SDS011;12275;48.550;12.132;2023-06-01T08:52:52;354.92;;;288.20;;
24096;SDS011;12275;48.550;12.132;2023-06-01T08:55:21;591.00;;;533.90;;
24096;SDS011;12275;48.550;12.132;2023-06-01T08:57:47;281.10;;;193.20;;
24096;SDS011;12275;48.550;12.132;2023-06-01T09:00:13;136.60;;;89.28;;
24096;SDS011;12275;48.550;12.132;2023-06-01T09:02:40;624.78;;;565.38;;
24096;SDS011;12275;48.550;12.132;2023-06-01T09:05:07;280.77;;;192.25;;
24096;SDS011;12275;48.550;12.132;2023-06-01T09:07:33;266.92;;;179.20;;
24096;SDS011;12275;48.550;12.132;2023-06-01T09:10:00;288.75;;;191.30;;
24096;SDS011;12275;48.550;12.132;2023-06-01T09:12:27;186.80;;;120.40;;
24096;SDS011;12275;48.550;12.132;2023-06-01T09:15:07;196.70;;;134.77;;
24096;SDS011;12275;48.550;12.132;2023-06-01T09:17:37;158.48;;;103.18;;
24096;SDS011;12275;48.550;12.132;2023-06-01T09:20:04;177.40;;;113.20;;
24096;SDS011;12275;48.550;12.132;2023-06-01T09:22:43;305.48;;;201.27;;
24096;SDS011;12275;48.550;12.132;2023-06-01T09:25:11;260.70;;;168.07;;
24096;SDS011;12275;48.550;12.132;2023-06-01T09:27:51;270.75;;;174.57;;
24096;SDS011;12275;48.550;12.132;2023-06-01T09:30:21;370.03;;;256.13;;
24096;SDS011;12275;48.550;12.132;2023-06-01T09:32:49;286.58;;;191.07;;
24096;SDS011;12275;48.550;12.132;2023-06-01T09:38:05;280.13;;;182.57;;
24096;SDS011;12275;48.550;12.132;2023-06-01T09:40:31;219.23;;;139.55;;
24096;SDS011;12275;48.550;12.132;2023-06-01T09:42:58;251.48;;;163.25;;
24096;SDS011;12275;48.550;12.132;2023-06-01T09:45:23;301.33;;;198.40;;
24096;SDS011;12275;48.550;12.132;2023-06-01T09:47:50;281.10;;;186.18;;
24096;SDS011;12275;48.550;12.132;2023-06-01T09:50:36;258.25;;;167.07;;
24096;SDS011;12275;48.550;12.132;2023-06-01T09:53:03;295.50;;;195.15;;
24096;SDS011;12275;48.550;12.132;2023-06-01T09:55:30;237.70;;;156.77;;
24096;SDS011;12275;48.550;12.132;2023-06-01T10:00:46;316.95;;;216.55;;
24096;SDS011;12275;48.550;12.132;2023-06-01T10:03:13;344.02;;;243.77;;
24096;SDS011;12275;48.550;12.132;2023-06-01T10:05:43;372.57;;;270.67;;
24096;SDS011;12275;48.550;12.132;2023-06-01T10:08:14;397.25;;;293.05;;
24096;SDS011;12275;48.550;12.132;2023-06-01T10:10:42;265.63;;;172.27;;
24096;SDS011;12275;48.550;12.132;2023-06-01T10:13:09;372.17;;;261.03;;
24096;SDS011;12275;48.550;12.132;2023-06-01T10:15:36;315.38;;;215.88;;
24096;SDS011;12275;48.550;12.132;2023-06-01T10:18:05;315.97;;;214.93;;
24096;SDS011;12275;48.550;12.132;2023-06-01T10:20:32;345.83;;;242.63;;
24096;SDS011;12275;48.550;12.132;2023-06-01T10:22:59;401.83;;;299.08;;
24096;SDS011;12275;48.550;12.132;2023-06-01T10:25:26;315.90;;;218.20;;
24096;SDS011;12275;48.550;12.132;2023-06-01T10:28:06;346.60;;;243.88;;
24096;SDS011;12275;48.550;12.132;2023-06-01T10:30:35;361.67;;;256.08;;
24096;SDS011;12275;48.550;12.132;2023-06-01T10:33:00;385.60;;;274.60;;
24096;SDS011;12275;48.550;12.132;2023-06-01T10:40:39;328.87;;;231.73;;
24096;SDS011;12275;48.550;12.132;2023-06-01T10:43:06;311.40;;;215.43;;
24096;SDS011;12275;48.550;12.132;2023-06-01T10:47:59;399.83;;;293.83;;
24096;SDS011;12275;48.550;12.132;2023-06-01T10:50:26;343.55;;;239.70;;
24096;SDS011;12275;48.550;12.132;2023-06-01T10:52:53;353.10;;;248.32;;
24096;SDS011;12275;48.550;12.132;2023-06-01T10:55:23;298.00;;;202.30;;
24096;SDS011;12275;48.550;12.132;2023-06-01T10:57:51;354.70;;;247.95;;
24096;SDS011;12275;48.550;12.132;2023-06-01T11:00:47;295.33;;;199.57;;
24096;SDS011;12275;48.550;12.132;2023-06-01T11:03:14;287.23;;;194.00;;
24096;SDS011;12275;48.550;12.132;2023-06-01T11:10:57;364.33;;;258.43;;
24096;SDS011;12275;48.550;12.132;2023-06-01T11:13:28;291.27;;;196.75;;
24096;SDS011;12275;48.550;12.132;2023-06-01T11:21:16;275.13;;;182.35;;
24096;SDS011;12275;48.550;12.132;2023-06-01T11:23:44;318.23;;;217.48;;
24096;SDS011;12275;48.550;12.132;2023-06-01T11:26:12;320.70;;;218.88;;
24096;SDS011;12275;48.550;12.132;2023-06-01T11:28:40;327.70;;;224.65;;
24096;SDS011;12275;48.550;12.132;2023-06-01T11:31:11;351.33;;;244.45;;
24096;SDS011;12275;48.550;12.132;2023-06-01T11:33:38;326.42;;;225.43;;
24096;SDS011;12275;48.550;12.132;2023-06-01T11:36:08;328.92;;;232.52;;
24096;SDS011;12275;48.550;12.132;2023-06-01T11:38:38;297.75;;;205.32;;
24096;SDS011;12275;48.550;12.132;2023-06-01T11:41:05;384.95;;;279.85;;
24096;SDS011;12275;48.550;12.132;2023-06-01T11:43:32;353.10;;;250.15;;
24096;SDS011;12275;48.550;12.132;2023-06-01T11:45:59;356.80;;;252.00;;
24096;SDS011;12275;48.550;12.132;2023-06-01T11:48:32;290.13;;;196.70;;
24096;SDS011;12275;48.550;12.132;2023-06-01T11:51:01;349.35;;;242.25;;
24096;SDS011;12275;48.550;12.132;2023-06-01T11:53:31;394.20;;;296.58;;
24096;SDS011;12275;48.550;12.132;2023-06-01T11:55:57;365.88;;;256.83;;
24096;SDS011;12275;48.550;12.132;2023-06-01T11:58:23;323.60;;;225.37;;
24096;SDS011;12275;48.550;12.132;2023-06-01T12:00:53;328.38;;;225.73;;
24096;SDS011;12275;48.550;12.132;2023-06-01T12:03:19;368.05;;;260.20;;
24096;SDS011;12275;48.550;12.132;2023-06-01T12:05:45;282.67;;;188.88;;
24096;SDS011;12275;48.550;12.132;2023-06-01T12:08:17;262.85;;;174.85;;
24096;SDS011;12275;48.550;12.132;2023-06-01T12:10:48;223.68;;;146.95;;
24096;SDS011;12275;48.550;12.132;2023-06-01T12:13:15;235.43;;;157.15;;
24096;SDS011;12275;48.550;12.132;2023-06-01T12:15:42;218.48;;;144.07;;
24096;SDS011;12275;48.550;12.132;2023-06-01T12:18:09;275.65;;;188.20;;
24096;SDS011;12275;48.550;12.132;2023-06-01T12:20:38;246.80;;;164.30;;
24096;SDS011;12275;48.550;12.132;2023-06-01T12:25:36;206.73;;;133.40;;
24096;SDS011;12275;48.550;12.132;2023-06-01T12:28:05;243.80;;;161.85;;
24096;SDS011;12275;48.550;12.132;2023-06-01T12:30:32;259.27;;;170.77;;
24096;SDS011;12275;48.550;12.132;2023-06-01T12:32:58;274.92;;;184.20;;
24096;SDS011;12275;48.550;12.132;2023-06-01T12:35:25;251.63;;;166.77;;
24096;SDS011;12275;48.550;12.132;2023-06-01T12:38:03;242.65;;;159.40;;
24096;SDS011;12275;48.550;12.132;2023-06-01T12:40:31;229.63;;;149.50;;
24096;SDS011;12275;48.550;12.132;2023-06-01T12:42:58;234.40;;;154.85;;
24096;SDS011;12275;48.550;12.132;2023-06-01T12:45:24;254.52;;;168.52;;
24096;SDS011;12275;48.550;12.132;2023-06-01T12:47:50;222.00;;;147.02;;
24096;SDS011;12275;48.550;12.132;2023-06-01T12:50:15;260.23;;;175.27;;
24096;SDS011;12275;48.550;12.132;2023-06-01T12:52:41;230.20;;;151.50;;
24096;SDS011;12275;48.550;12.132;2023-06-01T12:55:07;255.02;;;168.43;;
24096;SDS011;12275;48.550;12.132;2023-06-01T12:57:34;241.45;;;162.23;;
24096;SDS011;12275;48.550;12.132;2023-06-01T13:00:01;228.43;;;150.60;;
24096;SDS011;12275;48.550;12.132;2023-06-01T13:02:29;264.80;;;178.02;;
24096;SDS011;12275;48.550;12.132;2023-06-01T13:04:55;229.03;;;150.63;;
24096;SDS011;12275;48.550;12.132;2023-06-01T13:07:22;224.45;;;148.13;;
24096;SDS011;12275;48.550;12.132;2023-06-01T13:09:48;251.55;;;168.35;;
24096;SDS011;12275;48.550;12.132;2023-06-01T13:12:14;255.68;;;172.82;;
24096;SDS011;12275;48.550;12.132;2023-06-01T13:14:40;228.13;;;152.10;;
24096;SDS011;12275;48.550;12.132;2023-06-01T13:17:06;230.25;;;151.68;;
24096;SDS011;12275;48.550;12.132;2023-06-01T13:19:32;173.88;;;114.70;;
24096;SDS011;12275;48.550;12.132;2023-06-01T13:21:58;1081.10;;;994.20;;
24096;SDS011;12275;48.550;12.132;2023-06-01T13:24:23;669.87;;;607.37;;
24096;SDS011;12275;48.550;12.132;2023-06-01T13:26:49;510.33;;;456.33;;
24096;SDS011;12275;48.550;12.132;2023-06-01T13:29:15;437.67;;;358.77;;
24096;SDS011;12275;48.550;12.132;2023-06-01T13:31:41;493.30;;;440.17;;
24096;SDS011;12275;48.550;12.132;2023-06-01T13:34:06;454.70;;;382.97;;
24096;SDS011;12275;48.550;12.132;2023-06-01T13:36:32;541.97;;;485.90;;
24096;SDS011;12275;48.550;12.132;2023-06-01T13:38:58;668.67;;;606.22;;
24096;SDS011;12275;48.550;12.132;2023-06-01T13:41:23;607.10;;;547.90;;
24096;SDS011;12275;48.550;12.132;2023-06-01T13:43:49;585.57;;;527.53;;
24096;SDS011;12275;48.550;12.132;2023-06-01T13:46:15;446.03;;;366.57;;
24096;SDS011;12275;48.550;12.132;2023-06-01T13:48:40;512.63;;;457.85;;
24096;SDS011;12275;48.550;12.132;2023-06-01T13:51:06;631.03;;;570.63;;
24096;SDS011;12275;48.550;12.132;2023-06-01T13:53:35;714.58;;;649.50;;
24096;SDS011;12275;48.550;12.132;2023-06-01T13:56:00;529.08;;;473.25;;
24096;SDS011;12275;48.550;12.132;2023-06-01T13:58:27;693.80;;;629.92;;
24096;SDS011;12275;48.550;12.132;2023-06-01T14:00:53;652.83;;;591.00;;
24096;SDS011;12275;48.550;12.132;2023-06-01T14:03:18;786.35;;;717.28;;
24096;SDS011;12275;48.550;12.132;2023-06-01T14:05:44;524.33;;;469.05;;
24096;SDS011;12275;48.550;12.132;2023-06-01T14:08:10;595.00;;;536.63;;
24096;SDS011;12275;48.550;12.132;2023-06-01T14:10:36;451.10;;;378.80;;
24096;SDS011;12275;48.550;12.132;2023-06-01T14:13:02;433.33;;;350.58;;
24096;SDS011;12275;48.550;12.132;2023-06-01T14:15:27;445.93;;;366.83;;
24096;SDS011;12275;48.550;12.132;2023-06-01T14:17:53;449.63;;;371.95;;
24096;SDS011;12275;48.550;12.132;2023-06-01T14:20:20;486.48;;;432.88;;
24096;SDS011;12275;48.550;12.132;2023-06-01T14:22:46;672.63;;;609.95;;
24096;SDS011;12275;48.550;12.132;2023-06-01T14:25:12;491.45;;;437.75;;
24096;SDS011;12275;48.550;12.132;2023-06-01T14:27:38;459.50;;;388.98;;
24096;SDS011;12275;48.550;12.132;2023-06-01T14:30:04;443.75;;;368.30;;
24096;SDS011;12275;48.550;12.132;2023-06-01T14:32:31;389.40;;;301.83;;
24096;SDS011;12275;48.550;12.132;2023-06-01T14:34:56;541.70;;;485.83;;
24096;SDS011;12275;48.550;12.132;2023-06-01T14:37:22;451.53;;;386.30;;
24096;SDS011;12275;48.550;12.132;2023-06-01T14:39:48;437.65;;;370.63;;
24096;SDS011;12275;48.550;12.132;2023-06-01T14:42:14;505.13;;;451.08;;